Jump to content


DELTA AIRLINES FLIGHT DL1678 FLOWN ON 03-08-2018 BY CAPTAIN DEREK ROGY

Pilot StatsCaptain Derek Rogy (LDP86) • 1,600.5 total hours • 835 total flights [View Logbook]
FLIGHT DETAILS
StatusReceived and approved on 2018-03-08 at 21:03:49
Origin AirportMinneapolis-St Paul Intl (KMSP) • Minneapolis, Minnesota, United States (841 feet MSL)
Filed Flight PlanKMSP GEP J36 ODI J30 BRIBE J90 OBK J89 HITTR J75 KRNEL J73 CHRRI KRSW
Destination AirportSouthwest Florida Intl (KRSW) • Ft Myers, Florida, United States (30 feet MSL)
Alternate AirportNone Filed
AirlineDelta Airlines
AircraftBoeing 757-200 | Winglets (75W / B757-200)
FS Aircraft Used757-200 Delta Airlines N709TW UHD
Cruising AltitudeFL350
Distance Flown1,232 nautical miles
Passengers Onboard98 passengers (52.69% full)
DEPARTURE DETAILS
Time Out07:30:36
Taxi Data167,511 lbs total with 35,786 lbs of fuel onboard
Takeoff Data07:50:31 (20 minutes after leaving gate/ramp) • 166,540 lbs total • 16° pitch at 115 knots
Departure METARKMSP 081853Z 33007KT 10SM CLR M02/M12 A3009 RMK AO2 SLP202 T10221122
ARRIVAL DETAILS
Landing Data11:41:17 • 144,971 lbs total • 7° pitch doing 104 knots at a rate of -422.15 feet/minute with 12,516 lbs of fuel onboard
Time In11:49:05 (8 minutes after landing)
Ramp Weight144,241 lbs total
Total Fuel Used23,270 lbs
Total Block Time03:18:25 (3.3 hours) while 28 minutes were spent on the ground
Arrival METARKRSW 090153Z 35005KT 10SM CLR 14/06 A3013 RMK AO2 SLP199 T01390061
MISCELLANEOUS DETAILS
LiveDISPATCH Version4.8.3.1
FS Version
FSUIPC Version5.12
OS VersionWindows 7 32-bit
Screen Resolution1920 x 1200
Pilot's CommentsNo Comments Reported
FLIGHT MAP